createdAt,value
2023-03-13T00:01:14.360Z,40.49
2023-03-13T00:03:42.195Z,40.48
2023-03-13T00:06:09.638Z,40.62
2023-03-13T00:08:36.993Z,40.60
2023-03-13T00:11:06.009Z,40.96
2023-03-13T00:13:33.358Z,41.20
2023-03-13T00:16:08.004Z,42.38
2023-03-13T00:18:35.698Z,43.88
2023-03-13T00:21:07.151Z,45.09
2023-03-13T00:23:35.780Z,44.19
2023-03-13T00:26:08.298Z,44.51
2023-03-13T00:28:36.290Z,44.44
2023-03-13T00:31:05.388Z,44.81
2023-03-13T00:33:34.041Z,45.02
2023-03-13T00:36:01.915Z,44.79
2023-03-13T00:38:29.881Z,44.92
2023-03-13T00:41:07.268Z,44.97
2023-03-13T00:43:35.044Z,45.08
2023-03-13T00:46:02.514Z,44.27
2023-03-13T00:48:30.226Z,45.00
2023-03-13T00:50:57.855Z,44.73
2023-03-13T00:53:25.185Z,44.79
2023-03-13T00:55:55.233Z,43.92
2023-03-13T00:58:23.145Z,44.21
2023-03-13T01:00:51.433Z,43.57
2023-03-13T01:03:19.072Z,44.13
2023-03-13T01:05:55.178Z,44.05
2023-03-13T01:08:22.859Z,43.79
2023-03-13T01:10:50.542Z,43.97
2023-03-13T01:13:17.975Z,44.62
2023-03-13T01:15:45.312Z,44.43
2023-03-13T01:18:15.412Z,44.16
2023-03-13T01:20:42.745Z,43.99
2023-03-13T01:23:10.082Z,44.19
2023-03-13T01:25:38.194Z,43.58
2023-03-13T01:28:05.638Z,44.83
2023-03-13T01:30:32.958Z,44.25
2023-03-13T01:33:00.606Z,44.22
2023-03-13T01:35:27.978Z,43.99
2023-03-13T01:37:55.326Z,44.00
2023-03-13T01:40:22.913Z,44.17
2023-03-13T01:42:54.561Z,44.14
2023-03-13T01:45:49.976Z,44.82
2023-03-13T01:48:17.922Z,44.20
2023-03-13T01:50:45.521Z,43.62
2023-03-13T01:53:13.043Z,43.71
2023-03-13T01:55:40.715Z,44.17
2023-03-13T01:58:08.069Z,43.90
2023-03-13T02:00:35.791Z,43.62
2023-03-13T02:03:06.753Z,43.77
2023-03-13T02:05:34.314Z,43.80
2023-03-13T02:08:07.496Z,43.73
2023-03-13T02:10:39.846Z,43.53
2023-03-13T02:13:07.226Z,43.48
2023-03-13T02:15:34.829Z,43.61
2023-03-13T02:18:02.163Z,43.71
2023-03-13T02:20:29.760Z,43.40
2023-03-13T02:23:20.463Z,43.41
2023-03-13T02:25:54.132Z,43.42
2023-03-13T02:28:27.497Z,43.22
2023-03-13T02:30:55.940Z,43.69
2023-03-13T02:33:23.265Z,43.58
2023-03-13T02:35:50.666Z,44.01
2023-03-13T02:38:21.698Z,44.26
2023-03-13T02:40:49.185Z,44.48
2023-03-13T02:43:36.924Z,44.22
2023-03-13T02:46:13.093Z,43.90
2023-03-13T02:48:45.537Z,43.99
2023-03-13T02:51:20.031Z,43.92
2023-03-13T02:53:49.286Z,43.96
2023-03-13T02:56:17.622Z,45.12
2023-03-13T02:58:50.395Z,45.26
2023-03-13T03:01:18.790Z,45.27
2023-03-13T03:03:46.413Z,45.63
2023-03-13T03:06:13.782Z,44.87
2023-03-13T03:08:43.784Z,45.31
2023-03-13T03:11:11.508Z,44.82
2023-03-13T03:13:38.939Z,44.67
2023-03-13T03:16:15.221Z,44.75
2023-03-13T03:18:42.621Z,44.87
2023-03-13T03:21:10.317Z,44.98
2023-03-13T03:23:37.897Z,45.02
2023-03-13T03:26:05.841Z,45.41
2023-03-13T03:28:33.757Z,45.63
2023-03-13T03:31:08.305Z,46.37
2023-03-13T03:33:36.448Z,46.43
2023-03-13T03:36:09.178Z,48.09
2023-03-13T03:38:37.547Z,47.44
2023-03-13T03:41:04.985Z,47.65
2023-03-13T03:43:32.870Z,47.18
2023-03-13T03:46:01.218Z,47.38
2023-03-13T03:48:28.736Z,46.93
2023-03-13T03:50:56.116Z,47.06
2023-03-13T03:53:24.121Z,47.29
2023-03-13T03:55:51.579Z,48.08
2023-03-13T03:58:19.134Z,47.72
2023-03-13T04:00:50.549Z,47.33
2023-03-13T04:03:18.387Z,47.41
2023-03-13T04:05:46.405Z,47.38
2023-03-13T04:08:14.611Z,47.63
2023-03-13T04:10:42.486Z,48.00
2023-03-13T04:13:09.967Z,47.67
2023-03-13T04:15:39.088Z,47.41
2023-03-13T04:18:08.872Z,48.11
2023-03-13T04:20:36.444Z,48.04
2023-03-13T04:23:03.927Z,48.01
2023-03-13T04:25:31.771Z,47.77
2023-03-13T04:27:59.391Z,47.61
2023-03-13T04:30:27.072Z,47.72
2023-03-13T04:32:55.142Z,48.00
2023-03-13T04:35:22.743Z,47.81
2023-03-13T04:37:50.642Z,47.47
2023-03-13T04:40:18.519Z,47.34
2023-03-13T04:42:47.193Z,47.43
2023-03-13T04:45:14.779Z,47.45
2023-03-13T04:47:42.684Z,47.41
2023-03-13T04:50:10.898Z,47.01
2023-03-13T04:52:38.903Z,46.89
2023-03-13T04:55:06.772Z,46.71
2023-03-13T04:57:34.411Z,47.17
2023-03-13T05:00:01.991Z,47.08
2023-03-13T05:02:30.907Z,47.72
2023-03-13T05:04:58.498Z,47.55
2023-03-13T05:07:26.121Z,46.86
2023-03-13T05:09:53.917Z,46.48
2023-03-13T05:12:21.653Z,47.96
2023-03-13T05:14:50.389Z,47.10
2023-03-13T05:17:18.781Z,46.73
2023-03-13T05:19:46.562Z,46.41
2023-03-13T05:22:14.354Z,46.34
2023-03-13T05:24:44.630Z,46.12
2023-03-13T05:27:12.100Z,46.28
2023-03-13T05:29:39.855Z,45.77
2023-03-13T05:32:07.557Z,45.95
2023-03-13T05:34:36.172Z,45.80
2023-03-13T05:37:03.678Z,45.78
2023-03-13T05:39:31.628Z,45.55
2023-03-13T05:41:59.399Z,45.52
2023-03-13T05:44:27.115Z,45.91
2023-03-13T05:46:54.882Z,45.97
2023-03-13T05:49:23.627Z,45.69
2023-03-13T05:51:51.640Z,45.54
2023-03-13T05:54:19.769Z,45.42
2023-03-13T05:56:50.413Z,45.45
2023-03-13T05:59:20.827Z,45.17
2023-03-13T06:01:49.051Z,45.37
2023-03-13T06:04:17.145Z,45.01
2023-03-13T06:06:44.846Z,44.93
2023-03-13T06:09:12.388Z,44.73
2023-03-13T06:11:40.119Z,44.61
2023-03-13T06:14:07.587Z,44.14
2023-03-13T06:16:35.914Z,43.90
2023-03-13T06:19:05.446Z,43.74
2023-03-13T06:21:32.761Z,43.37
2023-03-13T06:24:00.084Z,43.53
2023-03-13T06:26:27.681Z,43.44
2023-03-13T06:28:55.049Z,42.94
2023-03-13T06:31:22.496Z,42.75
2023-03-13T06:33:53.722Z,42.71
2023-03-13T06:36:21.919Z,42.34
2023-03-13T06:38:49.539Z,41.91
2023-03-13T06:41:16.853Z,41.49
2023-03-13T06:43:44.231Z,41.92
2023-03-13T06:46:22.638Z,41.31
2023-03-13T06:48:50.429Z,41.71
2023-03-13T06:51:19.864Z,41.34
2023-03-13T06:53:48.114Z,41.66
2023-03-13T06:56:15.447Z,40.99
2023-03-13T06:58:43.044Z,41.09
2023-03-13T07:01:11.534Z,40.20
2023-03-13T07:03:39.082Z,40.88
2023-03-13T07:06:07.031Z,39.92
2023-03-13T07:08:34.639Z,40.03
2023-03-13T07:11:03.386Z,39.63
2023-03-13T07:13:31.085Z,39.35
2023-03-13T07:16:06.370Z,39.40
2023-03-13T07:18:34.254Z,39.46
2023-03-13T07:21:04.978Z,39.31
2023-03-13T07:23:32.981Z,40.28
2023-03-13T07:26:02.791Z,38.91
2023-03-13T07:28:31.123Z,38.92
2023-03-13T07:31:15.664Z,39.23
2023-03-13T07:33:43.536Z,38.95
2023-03-13T07:36:11.065Z,38.83
2023-03-13T07:38:38.477Z,38.85
2023-03-13T07:41:06.148Z,38.68
2023-03-13T07:43:33.671Z,38.04
2023-03-13T07:46:02.257Z,38.11
2023-03-13T07:48:37.504Z,37.76
2023-03-13T07:51:06.237Z,38.27
2023-03-13T07:53:34.105Z,38.17
2023-03-13T07:56:03.175Z,38.90
2023-03-13T07:58:32.493Z,38.21
2023-03-13T08:01:00.155Z,38.12
2023-03-13T08:03:28.642Z,39.22
2023-03-13T08:06:26.102Z,38.49
2023-03-13T08:08:56.293Z,38.22
2023-03-13T08:11:26.848Z,37.65
2023-03-13T08:13:54.558Z,37.60
2023-03-13T08:16:25.789Z,39.27
2023-03-13T08:18:54.428Z,38.29
2023-03-13T08:21:29.800Z,39.41
2023-03-13T08:23:59.182Z,38.16
2023-03-13T08:26:30.465Z,38.87
2023-03-13T08:29:02.575Z,37.80
2023-03-13T08:31:33.452Z,37.59
2023-03-13T08:34:00.794Z,37.52
2023-03-13T08:36:31.146Z,37.46
2023-03-13T08:39:00.146Z,37.19
2023-03-13T08:41:29.135Z,37.50
2023-03-13T08:44:02.835Z,37.62
2023-03-13T08:46:31.043Z,36.51
2023-03-13T08:48:58.590Z,36.62
2023-03-13T08:51:26.925Z,36.58
2023-03-13T08:53:56.040Z,37.10
2023-03-13T08:56:25.280Z,36.57
2023-03-13T08:58:59.976Z,36.93
2023-03-13T09:01:32.256Z,36.82
2023-03-13T09:04:03.564Z,35.61
2023-03-13T09:06:33.442Z,35.59
2023-03-13T09:09:00.907Z,35.60
2023-03-13T09:11:28.281Z,35.36
2023-03-13T09:13:56.215Z,35.20
2023-03-13T09:16:24.087Z,35.33
2023-03-13T09:18:51.785Z,35.67
2023-03-13T09:21:21.319Z,35.54
2023-03-13T09:23:48.846Z,35.10
2023-03-13T09:26:16.638Z,34.86
2023-03-13T09:28:44.300Z,35.40
2023-03-13T09:31:16.489Z,35.97
2023-03-13T09:33:44.523Z,35.14
2023-03-13T09:36:12.089Z,35.20
2023-03-13T09:38:39.724Z,35.50
2023-03-13T09:41:27.930Z,34.52
2023-03-13T09:44:08.351Z,35.20
2023-03-13T09:46:54.270Z,34.70
2023-03-13T09:49:54.421Z,34.39
2023-03-13T09:52:41.052Z,34.71
2023-03-13T09:55:13.114Z,34.19
2023-03-13T09:57:56.406Z,34.15
2023-03-13T10:00:38.670Z,33.66
2023-03-13T10:03:15.119Z,33.31
2023-03-13T10:05:53.382Z,33.48
2023-03-13T10:08:30.231Z,33.75
2023-03-13T10:11:04.644Z,33.66
2023-03-13T10:13:37.749Z,33.42
2023-03-13T10:16:09.652Z,33.37
2023-03-13T10:18:37.433Z,32.86
2023-03-13T10:21:26.296Z,34.06
2023-03-13T10:24:24.847Z,33.42
2023-03-13T10:26:52.308Z,33.84
2023-03-13T10:29:24.544Z,33.37
2023-03-13T10:32:02.428Z,32.82
2023-03-13T10:34:51.485Z,33.32
2023-03-13T10:37:29.728Z,32.73
2023-03-13T10:40:15.158Z,33.21
2023-03-13T10:42:45.766Z,32.57
2023-03-13T10:45:17.886Z,32.14
2023-03-13T10:47:45.261Z,32.72
2023-03-13T10:50:20.942Z,32.46
2023-03-13T10:52:48.712Z,32.68
2023-03-13T10:55:21.191Z,32.23
2023-03-13T10:58:04.627Z,33.51
2023-03-13T11:00:39.209Z,32.37
2023-03-13T11:03:22.031Z,32.65
2023-03-13T11:05:57.727Z,31.94
2023-03-13T11:08:26.557Z,33.05
2023-03-13T11:11:05.294Z,32.83
2023-03-13T11:13:40.958Z,32.66
2023-03-13T11:16:28.279Z,32.97
2023-03-13T11:19:18.742Z,32.42
2023-03-13T11:22:06.152Z,32.68
2023-03-13T11:25:03.565Z,32.72
2023-03-13T11:27:49.287Z,32.68
2023-03-13T11:30:47.508Z,32.77
2023-03-13T11:33:30.149Z,33.19
2023-03-13T11:36:27.587Z,33.36
2023-03-13T11:39:21.958Z,33.36
2023-03-13T11:42:24.382Z,33.01
2023-03-13T11:44:54.772Z,32.20
2023-03-13T11:47:37.080Z,32.40
2023-03-13T11:50:16.835Z,32.84
2023-03-13T11:53:08.809Z,32.98
2023-03-13T11:55:42.721Z,33.18
2023-03-13T11:58:47.862Z,32.42
2023-03-13T12:01:19.732Z,33.03
2023-03-13T12:04:13.172Z,32.58
2023-03-13T12:07:05.475Z,32.23
2023-03-13T12:09:56.171Z,31.63
2023-03-13T12:12:35.348Z,31.34
2023-03-13T12:15:18.894Z,31.23
2023-03-13T12:17:50.989Z,31.47
2023-03-13T12:20:18.516Z,31.27
2023-03-13T12:22:51.825Z,31.37
2023-03-13T12:25:25.640Z,31.21
2023-03-13T12:27:54.579Z,31.20
2023-03-13T12:30:38.601Z,31.11
2023-03-13T12:33:17.641Z,31.51
2023-03-13T12:35:47.381Z,30.99
2023-03-13T12:38:23.094Z,31.52
2023-03-13T12:41:21.791Z,31.34
2023-03-13T12:44:04.220Z,32.21
2023-03-13T12:46:38.846Z,32.49
2023-03-13T12:49:24.696Z,32.23
2023-03-13T12:52:00.387Z,32.70
2023-03-13T12:54:49.486Z,32.74
2023-03-13T12:57:59.436Z,33.17
2023-03-13T13:00:29.921Z,33.27
2023-03-13T13:03:16.576Z,32.82
2023-03-13T13:06:01.864Z,32.69
2023-03-13T13:08:38.514Z,32.45
2023-03-13T13:11:24.565Z,32.56
2023-03-13T13:13:52.192Z,33.12
2023-03-13T13:16:20.598Z,32.99
2023-03-13T13:18:47.993Z,32.90
2023-03-13T13:21:15.610Z,33.17
2023-03-13T13:23:47.097Z,32.80
2023-03-13T13:26:26.788Z,33.39
2023-03-13T13:28:54.762Z,33.42
2023-03-13T13:31:43.860Z,33.10
2023-03-13T13:34:52.568Z,33.17
2023-03-13T13:37:22.806Z,32.97
2023-03-13T13:39:54.009Z,32.68
2023-03-13T13:42:33.262Z,32.67
2023-03-13T13:45:16.156Z,32.69
2023-03-13T13:47:47.979Z,33.33
2023-03-13T13:50:23.012Z,32.84
2023-03-13T13:52:50.437Z,32.86
2023-03-13T13:55:26.737Z,32.99
2023-03-13T13:58:12.306Z,32.57
2023-03-13T14:00:47.017Z,32.41
2023-03-13T14:03:20.469Z,32.35
2023-03-13T14:05:49.167Z,32.30
2023-03-13T14:08:39.232Z,32.46
2023-03-13T14:11:25.434Z,32.46
2023-03-13T14:14:29.076Z,32.97
2023-03-13T14:16:59.333Z,32.19
2023-03-13T14:19:40.325Z,31.66
2023-03-13T14:22:09.094Z,31.63
2023-03-13T14:24:36.713Z,31.17
2023-03-13T14:27:22.310Z,31.66
2023-03-13T14:30:06.774Z,32.00
2023-03-13T14:32:34.186Z,31.54
2023-03-13T14:35:02.366Z,31.83
2023-03-13T14:37:43.145Z,32.35
2023-03-13T14:40:29.989Z,32.49
2023-03-13T14:42:59.127Z,33.10
2023-03-13T14:45:34.362Z,32.94
2023-03-13T14:48:12.413Z,33.55
2023-03-13T14:50:40.051Z,33.94
2023-03-13T14:53:22.585Z,33.49
2023-03-13T14:56:30.201Z,33.01
2023-03-13T14:59:07.080Z,33.34
2023-03-13T15:01:35.076Z,32.98
2023-03-13T15:04:02.482Z,33.21
2023-03-13T15:06:29.830Z,33.44
2023-03-13T15:09:16.472Z,33.22
2023-03-13T15:11:56.236Z,33.76
2023-03-13T15:14:39.783Z,33.60
2023-03-13T15:17:20.384Z,33.71
2023-03-13T15:19:49.258Z,33.78
2023-03-13T15:22:16.748Z,33.98
2023-03-13T15:24:56.107Z,34.02
2023-03-13T15:27:31.821Z,34.34
2023-03-13T15:29:59.154Z,34.53
2023-03-13T15:32:28.264Z,34.42
2023-03-13T15:35:01.680Z,34.90
2023-03-13T15:37:29.752Z,34.94
2023-03-13T15:39:57.378Z,34.90
2023-03-13T15:42:24.921Z,35.45
2023-03-13T15:44:52.274Z,35.68
2023-03-13T15:47:21.289Z,35.37
2023-03-13T15:49:48.698Z,36.42
2023-03-13T15:52:19.418Z,36.29
2023-03-13T15:54:46.996Z,36.49
2023-03-13T15:57:24.294Z,36.52
2023-03-13T15:59:52.521Z,36.62
2023-03-13T16:02:21.504Z,36.64
2023-03-13T16:04:49.212Z,36.93
2023-03-13T16:07:18.546Z,36.78
2023-03-13T16:09:46.027Z,36.70
2023-03-13T16:12:13.688Z,36.56
2023-03-13T16:14:41.044Z,36.57
2023-03-13T16:17:16.309Z,36.45
2023-03-13T16:19:44.345Z,36.75
2023-03-13T16:22:11.805Z,36.79
2023-03-13T16:24:39.471Z,37.29
2023-03-13T16:27:16.821Z,37.85
2023-03-13T16:29:44.897Z,37.50
2023-03-13T16:32:16.151Z,38.35
2023-03-13T16:34:43.550Z,37.86
2023-03-13T16:37:17.809Z,38.11
2023-03-13T16:39:45.512Z,38.06
2023-03-13T16:42:12.909Z,37.95
2023-03-13T16:44:40.361Z,38.01
2023-03-13T16:47:35.899Z,38.33
2023-03-13T16:50:20.883Z,38.72
2023-03-13T16:52:48.569Z,38.73
2023-03-13T16:55:16.391Z,38.71
2023-03-13T16:57:43.821Z,38.91
2023-03-13T17:00:18.999Z,38.78
2023-03-13T17:02:46.436Z,39.04
2023-03-13T17:05:15.954Z,38.99
2023-03-13T17:07:47.238Z,39.57
2023-03-13T17:10:28.602Z,39.49
2023-03-13T17:12:55.949Z,40.05
2023-03-13T17:15:24.041Z,39.95
2023-03-13T17:17:51.955Z,39.79
2023-03-13T17:20:27.468Z,39.80
2023-03-13T17:22:56.473Z,40.23
2023-03-13T17:25:24.270Z,40.51
2023-03-13T17:27:51.683Z,40.72
2023-03-13T17:30:25.386Z,40.80
2023-03-13T17:32:52.771Z,41.52
2023-03-13T17:35:20.648Z,41.71
2023-03-13T17:37:48.236Z,41.85
2023-03-13T17:40:26.812Z,41.55
2023-03-13T17:42:56.251Z,41.21
2023-03-13T17:45:23.909Z,41.74
2023-03-13T17:47:51.277Z,41.39
2023-03-13T17:50:27.175Z,41.72
2023-03-13T17:52:54.894Z,42.19
2023-03-13T17:55:22.512Z,41.64
2023-03-13T17:57:49.900Z,41.94
2023-03-13T18:00:20.443Z,42.03
2023-03-13T18:02:48.078Z,42.03
2023-03-13T18:05:15.619Z,42.16
2023-03-13T18:07:44.312Z,42.39
2023-03-13T18:10:20.189Z,42.27
2023-03-13T18:12:48.008Z,43.49
2023-03-13T18:15:15.676Z,43.43
2023-03-13T18:17:43.045Z,43.40
2023-03-13T18:20:18.929Z,43.16
2023-03-13T18:22:46.950Z,43.59
2023-03-13T18:25:14.490Z,43.42
2023-03-13T18:27:41.844Z,43.42
2023-03-13T18:30:16.623Z,43.53
2023-03-13T18:32:43.997Z,43.28
2023-03-13T18:35:13.557Z,43.54
2023-03-13T18:37:42.418Z,43.98
2023-03-13T18:40:26.539Z,43.96
2023-03-13T18:42:54.172Z,44.99
2023-03-13T18:45:23.373Z,44.67
2023-03-13T18:47:50.742Z,44.62
2023-03-13T18:50:26.800Z,44.80
2023-03-13T18:52:55.477Z,45.13
2023-03-13T18:55:24.155Z,45.65
2023-03-13T18:57:51.615Z,45.33
2023-03-13T19:00:20.116Z,45.06
2023-03-13T19:02:47.748Z,45.45
2023-03-13T19:05:15.445Z,45.32
2023-03-13T19:07:42.772Z,45.20
2023-03-13T19:10:24.410Z,45.61
2023-03-13T19:12:52.063Z,45.26
2023-03-13T19:15:19.715Z,45.44
2023-03-13T19:17:47.141Z,45.91
2023-03-13T19:20:16.668Z,46.61
2023-03-13T19:22:44.426Z,46.62
2023-03-13T19:25:11.921Z,46.50
2023-03-13T19:27:42.439Z,46.46
2023-03-13T19:30:17.250Z,46.36
2023-03-13T19:32:44.774Z,46.15
2023-03-13T19:35:12.884Z,46.40
2023-03-13T19:37:40.435Z,45.64
2023-03-13T19:40:20.633Z,45.89
2023-03-13T19:42:48.246Z,45.89
2023-03-13T19:45:17.717Z,46.61
2023-03-13T19:47:45.128Z,46.04
2023-03-13T19:50:20.351Z,45.14
2023-03-13T19:52:47.792Z,45.04
2023-03-13T19:55:15.435Z,45.69
2023-03-13T19:57:42.844Z,44.73
2023-03-13T20:00:18.699Z,44.89
2023-03-13T20:02:45.963Z,45.00
2023-03-13T20:05:13.673Z,44.73
2023-03-13T20:07:41.023Z,44.83
2023-03-13T20:10:08.592Z,44.33
2023-03-13T20:12:36.248Z,44.30
2023-03-13T20:15:03.980Z,43.90
2023-03-13T20:17:31.318Z,44.25
2023-03-13T20:19:58.932Z,44.32
2023-03-13T20:22:26.381Z,44.55
2023-03-13T20:24:55.879Z,44.22
2023-03-13T20:27:23.602Z,43.96
2023-03-13T20:29:51.016Z,43.82
2023-03-13T20:32:18.460Z,43.73
2023-03-13T20:34:46.108Z,43.79
2023-03-13T20:37:13.446Z,44.43
2023-03-13T20:39:41.849Z,44.55
2023-03-13T20:42:09.598Z,44.18
2023-03-13T20:44:36.912Z,44.64
2023-03-13T20:47:04.249Z,44.88
2023-03-13T20:49:31.854Z,44.08
2023-03-13T20:51:59.227Z,45.21
2023-03-13T20:54:26.552Z,44.22
2023-03-13T20:56:54.940Z,45.39
2023-03-13T20:59:22.264Z,44.66
2023-03-13T21:01:49.667Z,45.15
2023-03-13T21:04:17.354Z,43.64
2023-03-13T21:06:44.727Z,44.38
2023-03-13T21:09:13.461Z,43.78
2023-03-13T21:11:41.068Z,43.43
2023-03-13T21:14:08.402Z,44.07
2023-03-13T21:16:35.812Z,44.15
2023-03-13T21:19:03.456Z,43.21
2023-03-13T21:21:30.817Z,42.73
2023-03-13T21:23:58.189Z,42.75
2023-03-13T21:26:25.813Z,42.46
2023-03-13T21:28:53.233Z,43.06
2023-03-13T21:31:20.615Z,43.26
2023-03-13T21:33:48.287Z,43.43
2023-03-13T21:36:17.189Z,44.03
2023-03-13T21:38:44.708Z,43.87
2023-03-13T21:41:13.806Z,43.08
2023-03-13T21:43:41.709Z,42.96
2023-03-13T21:46:10.131Z,42.27
2023-03-13T21:48:39.045Z,43.47
2023-03-13T21:51:06.774Z,42.33
2023-03-13T21:53:34.604Z,42.95
2023-03-13T21:56:02.294Z,43.16
2023-03-13T21:58:29.667Z,43.23
2023-03-13T22:00:57.139Z,43.12
2023-03-13T22:03:26.486Z,43.79
2023-03-13T22:05:53.919Z,44.81
2023-03-13T22:08:21.269Z,44.02
2023-03-13T22:10:49.661Z,43.87
2023-03-13T22:13:17.054Z,42.43
2023-03-13T22:15:46.370Z,43.77
2023-03-13T22:18:14.572Z,43.13
2023-03-13T22:20:42.649Z,43.44
2023-03-13T22:23:10.962Z,42.83
2023-03-13T22:25:40.351Z,44.23
2023-03-13T22:28:08.026Z,43.59
2023-03-13T22:30:35.561Z,42.73
2023-03-13T22:33:06.701Z,43.52
2023-03-13T22:35:34.856Z,44.44
2023-03-13T22:38:02.727Z,43.78
2023-03-13T22:40:30.079Z,44.18
2023-03-13T22:42:57.436Z,44.20
2023-03-13T22:45:25.045Z,44.67
2023-03-13T22:47:52.377Z,44.63
2023-03-13T22:50:20.953Z,45.40
2023-03-13T22:52:48.608Z,44.88
2023-03-13T22:55:15.996Z,44.77
2023-03-13T22:57:43.381Z,44.79
2023-03-13T23:00:11.629Z,45.09
2023-03-13T23:02:38.948Z,45.41
2023-03-13T23:05:06.438Z,45.81
2023-03-13T23:07:35.794Z,45.82
2023-03-13T23:10:03.205Z,45.77
2023-03-13T23:12:30.887Z,45.35
2023-03-13T23:15:02.102Z,45.39
2023-03-13T23:17:30.584Z,44.98
2023-03-13T23:19:58.048Z,44.56
2023-03-13T23:22:29.090Z,44.94
2023-03-13T23:24:56.442Z,45.56
2023-03-13T23:27:23.879Z,45.11
2023-03-13T23:29:51.987Z,45.34
2023-03-13T23:32:19.423Z,45.35
2023-03-13T23:34:46.822Z,45.92
2023-03-13T23:37:14.438Z,45.77
2023-03-13T23:39:41.849Z,45.49
2023-03-13T23:42:09.170Z,46.17
2023-03-13T23:44:36.863Z,46.84
2023-03-13T23:47:04.236Z,46.37
2023-03-13T23:49:32.073Z,45.13
2023-03-13T23:51:59.703Z,46.78
2023-03-13T23:54:27.168Z,47.65
2023-03-13T23:56:54.519Z,47.41
2023-03-13T23:59:22.173Z,46.91
